createdAt,value
2022-09-12T00:09:45.982Z,20.25
2022-09-12T00:29:45.896Z,20.43
2022-09-12T00:49:45.874Z,20.68
2022-09-12T01:09:45.853Z,20.50
2022-09-12T01:29:45.818Z,20.37
2022-09-12T01:49:45.837Z,20.31
2022-09-12T02:09:45.761Z,20.25
2022-09-12T02:29:45.735Z,20.37
2022-09-12T02:49:45.727Z,20.31
2022-09-12T03:09:45.702Z,20.37
2022-09-12T03:29:45.663Z,20.37
2022-09-12T03:49:45.646Z,20.18
2022-09-12T04:09:45.618Z,20.43
2022-09-12T04:29:45.634Z,20.18
2022-09-12T04:49:45.634Z,20.25
2022-09-12T05:09:45.551Z,20.50
2022-09-12T05:29:45.533Z,20.25
2022-09-12T05:49:45.493Z,20.18
2022-09-12T06:09:45.481Z,20.18
2022-09-12T06:29:45.453Z,20.18
2022-09-12T06:49:45.474Z,20.12
2022-09-12T07:09:45.403Z,20.37
2022-09-12T07:49:45.349Z,20.50
2022-09-12T08:09:45.349Z,20.31
2022-09-12T08:29:45.296Z,20.31
2022-09-12T08:49:45.283Z,20.43
2022-09-12T09:09:45.250Z,20.56
2022-09-12T09:29:45.202Z,20.50
2022-09-12T09:49:45.190Z,20.81
2022-09-12T10:09:45.146Z,20.87
2022-09-12T10:29:45.147Z,20.81
2022-09-12T10:49:45.089Z,21.00
2022-09-12T11:09:45.086Z,20.81
2022-09-12T11:29:45.130Z,21.18
2022-09-12T11:49:45.022Z,21.06
2022-09-12T12:09:44.975Z,21.37
2022-09-12T12:29:44.957Z,21.31
2022-09-12T12:49:44.926Z,21.25
2022-09-12T13:09:44.884Z,21.31
2022-09-12T13:29:44.849Z,21.18
2022-09-12T13:49:44.829Z,21.25
2022-09-12T14:09:44.792Z,21.12
2022-09-12T14:29:44.776Z,21.56
2022-09-12T14:49:44.738Z,21.43
2022-09-12T15:09:44.699Z,21.75
2022-09-12T15:29:44.686Z,21.62
2022-09-12T15:49:44.657Z,21.62
2022-09-12T16:09:44.610Z,21.68
2022-09-12T16:29:44.586Z,21.50
2022-09-12T16:49:44.550Z,21.56
2022-09-12T17:09:44.527Z,21.37
2022-09-12T17:29:44.517Z,21.25
2022-09-12T17:49:44.463Z,21.12
2022-09-12T18:09:44.451Z,20.06
2022-09-12T18:29:44.401Z,21.31
2022-09-12T18:49:44.433Z,21.18
2022-09-12T19:09:44.345Z,21.00
2022-09-12T19:29:44.315Z,20.81
2022-09-12T19:49:44.307Z,20.81
2022-09-12T20:09:44.252Z,20.87
2022-09-12T20:29:44.234Z,20.87
2022-09-12T20:49:44.202Z,20.81
2022-09-12T21:09:44.265Z,20.87
2022-09-12T21:29:44.146Z,20.87
2022-09-12T21:49:44.118Z,20.68
2022-09-12T22:09:44.124Z,20.68
2022-09-12T22:29:44.109Z,20.68
2022-09-12T22:49:44.076Z,20.75
2022-09-12T23:09:44.005Z,20.68
2022-09-12T23:29:43.979Z,20.37
2022-09-12T23:49:43.968Z,20.43
